PAY2089 KMEM-KBIS
Flight info
| Callsign | PAY2089 |
|---|---|
| Flight time | N/A |
| Altitude | 36000 |
| Route | JTEEE5 ODATE ARG LMN FSD ABR |
| Aircraft | B738/M-SDE2E3FGHIRWXY/LB1 |
Departure
| Time | 2026-05-04 17:44 |
|---|---|
| Airport | Memphis International Airport (KMEM) |
Arrival
| Time | N/A |
|---|---|
| Airport | Bismarck Municipal Airport (KBIS) |
| Time | Latitude | Longitude | Altitude | Speed | Heading |
|---|---|---|---|---|---|
| 2026-05-04 17:32 | 35.05996 | -89.96943 | 266 ft | 0 kts | 2° |
| 2026-05-04 17:35 | 35.05995 | -89.96943 | 266 ft | 0 kts | 2° |
| 2026-05-04 17:36 | 35.05989 | -89.96943 | 266 ft | 2 kts | 2° |
| 2026-05-04 17:36 | 35.05974 | -89.96944 | 267 ft | 2 kts | 2° |
| 2026-05-04 17:37 | 35.05964 | -89.96944 | 267 ft | 2 kts | 2° |
| 2026-05-04 17:37 | 35.05949 | -89.96942 | 267 ft | 2 kts | 336° |
| 2026-05-04 17:37 | 35.05937 | -89.96932 | 267 ft | 2 kts | 315° |
| 2026-05-04 17:37 | 35.05928 | -89.96918 | 267 ft | 2 kts | 294° |
| 2026-05-04 17:38 | 35.05925 | -89.96903 | 267 ft | 0 kts | 274° |
| 2026-05-04 17:38 | 35.05925 | -89.96902 | 267 ft | 2 kts | 274° |
| 2026-05-04 17:38 | 35.05926 | -89.96950 | 267 ft | 7 kts | 271° |
| 2026-05-04 17:38 | 35.05926 | -89.96955 | 267 ft | 0 kts | 271° |
| 2026-05-04 17:40 | 35.05926 | -89.96956 | 267 ft | 0 kts | 271° |
| 2026-05-04 17:40 | 35.05926 | -89.97028 | 267 ft | 14 kts | 269° |
| 2026-05-04 17:40 | 35.05911 | -89.97150 | 267 ft | 14 kts | 238° |
| 2026-05-04 17:41 | 35.05830 | -89.97186 | 267 ft | 12 kts | 183° |
| 2026-05-04 17:41 | 35.05738 | -89.97190 | 269 ft | 15 kts | 181° |
| 2026-05-04 17:41 | 35.05649 | -89.97227 | 270 ft | 13 kts | 223° |
| 2026-05-04 17:41 | 35.05590 | -89.97318 | 271 ft | 14 kts | 236° |
| 2026-05-04 17:42 | 35.05528 | -89.97428 | 272 ft | 16 kts | 234° |
| 2026-05-04 17:42 | 35.05486 | -89.97500 | 273 ft | 2 kts | 234° |
| 2026-05-04 17:42 | 35.05486 | -89.97501 | 273 ft | 0 kts | 234° |
| 2026-05-04 17:43 | 35.05476 | -89.97516 | 273 ft | 2 kts | 234° |
| 2026-05-04 17:43 | 35.05439 | -89.97579 | 274 ft | 14 kts | 230° |
| 2026-05-04 17:43 | 35.05217 | -89.97613 | 278 ft | 64 kts | 182° |
| 2026-05-04 17:43 | 35.04522 | -89.97601 | 294 ft | 134 kts | 179° |
| 2026-05-04 17:44 | 35.03375 | -89.97563 | 355 ft | 188 kts | 179° |
| 2026-05-04 17:44 | 35.02051 | -89.97483 | 1184 ft | 191 kts | 181° |
| 2026-05-04 17:44 | 35.00703 | -89.97435 | 1854 ft | 210 kts | 183° |
| 2026-05-04 17:44 | 34.99215 | -89.97623 | 2505 ft | 219 kts | 199° |
| 2026-05-04 17:45 | 34.97831 | -89.98440 | 3076 ft | 231 kts | 213° |
| 2026-05-04 17:45 | 34.96452 | -89.99551 | 3700 ft | 243 kts | 216° |
| 2026-05-04 17:45 | 34.95154 | -90.00929 | 4406 ft | 252 kts | 229° |
| 2026-05-04 17:45 | 34.94297 | -90.02766 | 5157 ft | 259 kts | 252° |
| 2026-05-04 17:46 | 34.94100 | -90.04944 | 6020 ft | 263 kts | 267° |
| 2026-05-04 17:46 | 34.94129 | -90.07159 | 6844 ft | 265 kts | 268° |
| 2026-05-04 17:46 | 34.94167 | -90.09399 | 7644 ft | 268 kts | 270° |
| 2026-05-04 17:46 | 34.94451 | -90.11645 | 8427 ft | 275 kts | 284° |
| 2026-05-04 17:47 | 34.95206 | -90.13789 | 9237 ft | 279 kts | 294° |
| 2026-05-04 17:47 | 34.96130 | -90.15859 | 10026 ft | 281 kts | 297° |
| 2026-05-04 17:47 | 34.97364 | -90.17758 | 10560 ft | 298 kts | 313° |
| 2026-05-04 17:47 | 34.99103 | -90.19254 | 11027 ft | 316 kts | 329° |
| 2026-05-04 17:48 | 35.01250 | -90.20122 | 11467 ft | 336 kts | 348° |
| 2026-05-04 17:48 | 35.03630 | -90.20380 | 11928 ft | 351 kts | 354° |
| 2026-05-04 17:48 | 35.06109 | -90.20473 | 12513 ft | 359 kts | 355° |
| 2026-05-04 17:48 | 35.08537 | -90.20418 | 13147 ft | 366 kts | 4° |
| 2026-05-04 17:49 | 35.11053 | -90.19830 | 13895 ft | 370 kts | 11° |
| 2026-05-04 17:49 | 35.13561 | -90.19068 | 14601 ft | 374 kts | 12° |
| 2026-05-04 17:49 | 35.16070 | -90.18263 | 15365 ft | 375 kts | 12° |
| 2026-05-04 17:49 | 35.18600 | -90.17448 | 16061 ft | 378 kts | 12° |
| 2026-05-04 17:50 | 35.21154 | -90.16632 | 16799 ft | 379 kts | 11° |
| 2026-05-04 17:50 | 35.23689 | -90.15834 | 17421 ft | 383 kts | 11° |
| 2026-05-04 17:50 | 35.26281 | -90.15026 | 18059 ft | 386 kts | 11° |
| 2026-05-04 17:50 | 35.28891 | -90.14219 | 18726 ft | 388 kts | 10° |
| 2026-05-04 17:51 | 35.31516 | -90.13408 | 19392 ft | 390 kts | 10° |
| 2026-05-04 17:51 | 35.34149 | -90.12595 | 20027 ft | 392 kts | 10° |
| 2026-05-04 17:51 | 35.36819 | -90.11769 | 20631 ft | 394 kts | 10° |
| 2026-05-04 17:51 | 35.39485 | -90.10944 | 21181 ft | 398 kts | 9° |
| 2026-05-04 17:52 | 35.42167 | -90.10112 | 21787 ft | 399 kts | 9° |
| 2026-05-04 17:52 | 35.44878 | -90.09270 | 22322 ft | 402 kts | 9° |
| 2026-05-04 17:52 | 35.47596 | -90.08427 | 22861 ft | 405 kts | 9° |
| 2026-05-04 17:52 | 35.50338 | -90.07575 | 23346 ft | 408 kts | 9° |
| 2026-05-04 17:53 | 35.53092 | -90.06719 | 23806 ft | 413 kts | 9° |
| 2026-05-04 17:53 | 35.55876 | -90.05853 | 24378 ft | 414 kts | 9° |
| 2026-05-04 17:53 | 35.58703 | -90.04993 | 24853 ft | 416 kts | 8° |
| 2026-05-04 17:53 | 35.61521 | -90.04266 | 25379 ft | 415 kts | 4° |
| 2026-05-04 17:54 | 35.64371 | -90.03883 | 25852 ft | 412 kts | 358° |
| 2026-05-04 17:54 | 35.67218 | -90.03853 | 26285 ft | 412 kts | 353° |
| 2026-05-04 17:54 | 35.70085 | -90.04017 | 26724 ft | 413 kts | 351° |
| 2026-05-04 17:54 | 35.72968 | -90.04272 | 27101 ft | 416 kts | 351° |
| 2026-05-04 17:55 | 35.75848 | -90.04589 | 27599 ft | 414 kts | 347° |
| 2026-05-04 17:55 | 35.78666 | -90.05308 | 28022 ft | 411 kts | 339° |
| 2026-05-04 17:55 | 35.81323 | -90.06529 | 28436 ft | 408 kts | 332° |
| 2026-05-04 17:55 | 35.83854 | -90.08112 | 28772 ft | 409 kts | 327° |
| 2026-05-04 17:56 | 35.86190 | -90.10077 | 29160 ft | 407 kts | 318° |
| 2026-05-04 17:56 | 35.88223 | -90.12485 | 29498 ft | 407 kts | 309° |
| 2026-05-04 17:56 | 35.89946 | -90.15242 | 29857 ft | 408 kts | 302° |
| 2026-05-04 17:56 | 35.91426 | -90.18256 | 30282 ft | 408 kts | 297° |
| 2026-05-04 17:57 | 35.92601 | -90.21396 | 30570 ft | 411 kts | 291° |
| 2026-05-04 17:57 | 35.93492 | -90.24792 | 30909 ft | 412 kts | 285° |
| 2026-05-04 17:57 | 35.94056 | -90.28236 | 31199 ft | 416 kts | 279° |
| 2026-05-04 17:57 | 35.94299 | -90.31841 | 31571 ft | 417 kts | 272° |
| 2026-05-04 17:58 | 35.94189 | -90.35393 | 32154 ft | 414 kts | 267° |
| 2026-05-04 17:58 | 35.93938 | -90.38924 | 32689 ft | 410 kts | 270° |
| 2026-05-04 17:58 | 35.93944 | -90.42423 | 33138 ft | 406 kts | 275° |
| 2026-05-04 17:58 | 35.94247 | -90.45903 | 33535 ft | 404 kts | 281° |
| 2026-05-04 17:59 | 35.94835 | -90.49262 | 33881 ft | 403 kts | 286° |
| 2026-05-04 17:59 | 35.95675 | -90.52572 | 34203 ft | 403 kts | 290° |
| 2026-05-04 17:59 | 35.97805 | -90.58981 | 34851 ft | 400 kts | 294° |
| 2026-05-04 18:00 | 35.98951 | -90.62123 | 35268 ft | 395 kts | 294° |
| 2026-05-04 18:00 | 36.00090 | -90.65209 | 35684 ft | 389 kts | 295° |
| 2026-05-04 18:00 | 36.01204 | -90.68233 | 35900 ft | 389 kts | 294° |
| 2026-05-04 18:01 | 36.03459 | -90.74390 | 35905 ft | 391 kts | 294° |
| 2026-05-04 18:01 | 36.05677 | -90.80508 | 35898 ft | 388 kts | 294° |
| 2026-05-04 18:02 | 36.09041 | -90.89611 | 35910 ft | 386 kts | 298° |
| 2026-05-04 18:02 | 36.12272 | -90.94936 | 35911 ft | 389 kts | 314° |
| 2026-05-04 18:03 | 36.16098 | -90.98503 | 35917 ft | 395 kts | 324° |
| 2026-05-04 18:03 | 36.20950 | -91.01847 | 35905 ft | 396 kts | 328° |
| 2026-05-04 18:04 | 36.25912 | -91.04878 | 35897 ft | 396 kts | 329° |
| 2026-05-04 18:05 | 36.33348 | -91.09438 | 35895 ft | 395 kts | 329° |
| 2026-05-04 18:05 | 36.38247 | -91.12502 | 35892 ft | 395 kts | 329° |
| 2026-05-04 18:06 | 36.45605 | -91.17144 | 35889 ft | 396 kts | 328° |
| 2026-05-04 18:06 | 36.50522 | -91.20258 | 35886 ft | 396 kts | 328° |
| 2026-05-04 18:07 | 36.55431 | -91.23372 | 35877 ft | 395 kts | 328° |
| 2026-05-04 18:07 | 36.60334 | -91.26489 | 35867 ft | 395 kts | 328° |
| 2026-05-04 18:08 | 36.65257 | -91.29621 | 35861 ft | 395 kts | 329° |
| 2026-05-04 18:08 | 36.70122 | -91.32721 | 35858 ft | 394 kts | 328° |
| 2026-05-04 18:09 | 36.79917 | -91.38975 | 35862 ft | 395 kts | 328° |
| 2026-05-04 18:10 | 36.84792 | -91.42096 | 35859 ft | 396 kts | 328° |
| 2026-05-04 18:10 | 36.89675 | -91.45225 | 35860 ft | 395 kts | 328° |
| 2026-05-04 18:11 | 36.94563 | -91.48364 | 35861 ft | 395 kts | 328° |
| 2026-05-04 18:11 | 36.99454 | -91.51507 | 35861 ft | 395 kts | 328° |
| 2026-05-04 18:12 | 37.04351 | -91.54658 | 35854 ft | 393 kts | 328° |
| 2026-05-04 18:12 | 37.09224 | -91.57801 | 35846 ft | 395 kts | 328° |
| 2026-05-04 18:13 | 37.14000 | -91.60883 | 35851 ft | 394 kts | 328° |
| 2026-05-04 18:14 | 37.21300 | -91.65604 | 35845 ft | 394 kts | 328° |
| 2026-05-04 18:14 | 37.26189 | -91.68771 | 35836 ft | 392 kts | 328° |
| 2026-05-04 18:15 | 37.35897 | -91.75077 | 35826 ft | 393 kts | 328° |
| 2026-05-04 18:16 | 37.40752 | -91.78237 | 35824 ft | 391 kts | 328° |
| 2026-05-04 18:16 | 37.45593 | -91.81392 | 35819 ft | 391 kts | 328° |
| 2026-05-04 18:17 | 37.52827 | -91.86114 | 35812 ft | 391 kts | 328° |
| 2026-05-04 18:18 | 37.60083 | -91.90862 | 35799 ft | 389 kts | 328° |
| 2026-05-04 18:18 | 37.64884 | -91.94007 | 35807 ft | 390 kts | 328° |
| 2026-05-04 18:19 | 37.72109 | -91.98753 | 35801 ft | 389 kts | 328° |
| 2026-05-04 18:19 | 37.76915 | -92.01916 | 35799 ft | 389 kts | 328° |
| 2026-05-04 18:20 | 37.81697 | -92.05067 | 35794 ft | 389 kts | 328° |
| 2026-05-04 18:20 | 37.86495 | -92.08235 | 35784 ft | 389 kts | 328° |
| 2026-05-04 18:21 | 37.91269 | -92.11390 | 35788 ft | 388 kts | 327° |
| 2026-05-04 18:21 | 37.96085 | -92.14576 | 35775 ft | 389 kts | 328° |
| 2026-05-04 18:22 | 38.00879 | -92.17757 | 35770 ft | 390 kts | 328° |
| 2026-05-04 18:22 | 38.05706 | -92.20959 | 35759 ft | 389 kts | 328° |
| 2026-05-04 18:23 | 38.10512 | -92.24154 | 35750 ft | 391 kts | 328° |
| 2026-05-04 18:23 | 38.15331 | -92.27362 | 35751 ft | 392 kts | 328° |
| 2026-05-04 18:24 | 38.20138 | -92.30569 | 35748 ft | 392 kts | 328° |
| 2026-05-04 18:24 | 38.24973 | -92.33799 | 35745 ft | 394 kts | 328° |
| 2026-05-04 18:25 | 38.29829 | -92.37045 | 35754 ft | 392 kts | 328° |
| 2026-05-04 18:25 | 38.34640 | -92.40269 | 35752 ft | 393 kts | 328° |
| 2026-05-04 18:26 | 38.39511 | -92.43538 | 35746 ft | 395 kts | 328° |
| 2026-05-04 18:26 | 38.44367 | -92.46798 | 35748 ft | 396 kts | 328° |
| 2026-05-04 18:27 | 38.49233 | -92.50073 | 35752 ft | 395 kts | 328° |
| 2026-05-04 18:27 | 38.54096 | -92.53350 | 35745 ft | 396 kts | 328° |
| 2026-05-04 18:28 | 38.58968 | -92.56637 | 35747 ft | 395 kts | 328° |
| 2026-05-04 18:28 | 38.63873 | -92.59955 | 35737 ft | 398 kts | 328° |
| 2026-05-04 18:29 | 38.68773 | -92.63271 | 35734 ft | 397 kts | 328° |
| 2026-05-04 18:29 | 38.73678 | -92.66597 | 35724 ft | 399 kts | 328° |
| 2026-05-04 18:30 | 38.80967 | -92.71548 | 35727 ft | 398 kts | 328° |
| 2026-05-04 18:31 | 38.85867 | -92.74882 | 35726 ft | 399 kts | 327° |
| 2026-05-04 18:31 | 38.90767 | -92.78223 | 35728 ft | 398 kts | 328° |
| 2026-05-04 18:32 | 38.95694 | -92.81588 | 35725 ft | 401 kts | 327° |
| 2026-05-04 18:32 | 39.00598 | -92.84942 | 35726 ft | 399 kts | 327° |
| 2026-05-04 18:33 | 39.05487 | -92.88292 | 35718 ft | 400 kts | 328° |
| 2026-05-04 18:33 | 39.10373 | -92.91644 | 35720 ft | 399 kts | 327° |
| 2026-05-04 18:34 | 39.15162 | -92.94935 | 35720 ft | 398 kts | 328° |
| 2026-05-04 18:34 | 39.20041 | -92.98292 | 35717 ft | 399 kts | 327° |
| 2026-05-04 18:35 | 39.24957 | -93.01683 | 35708 ft | 401 kts | 327° |
| 2026-05-04 18:35 | 39.29865 | -93.05072 | 35702 ft | 400 kts | 327° |
| 2026-05-04 18:36 | 39.34747 | -93.08448 | 35709 ft | 399 kts | 327° |
| 2026-05-04 18:36 | 39.39644 | -93.11841 | 35702 ft | 398 kts | 327° |
| 2026-05-04 18:37 | 39.44537 | -93.15237 | 35695 ft | 401 kts | 327° |
| 2026-05-04 18:37 | 39.49449 | -93.18649 | 35689 ft | 400 kts | 328° |
| 2026-05-04 18:38 | 39.54346 | -93.22057 | 35687 ft | 401 kts | 327° |
| 2026-05-04 18:38 | 39.59242 | -93.25471 | 35685 ft | 401 kts | 328° |
| 2026-05-04 18:39 | 39.64177 | -93.28916 | 35681 ft | 401 kts | 327° |
| 2026-05-04 18:39 | 39.69078 | -93.32343 | 35687 ft | 401 kts | 327° |
| 2026-05-04 18:40 | 39.73999 | -93.35790 | 35683 ft | 401 kts | 327° |
| 2026-05-04 18:40 | 39.78912 | -93.39237 | 35688 ft | 402 kts | 327° |
| 2026-05-04 18:41 | 39.83849 | -93.42709 | 35690 ft | 402 kts | 327° |
| 2026-05-04 18:41 | 39.88769 | -93.46172 | 35690 ft | 404 kts | 327° |
| 2026-05-04 18:42 | 39.93727 | -93.49669 | 35684 ft | 402 kts | 327° |
| 2026-05-04 18:42 | 39.98636 | -93.53134 | 35684 ft | 402 kts | 327° |
| 2026-05-04 18:43 | 40.03552 | -93.56613 | 35669 ft | 404 kts | 327° |
| 2026-05-04 18:43 | 40.08512 | -93.60129 | 35671 ft | 405 kts | 327° |
| 2026-05-04 18:44 | 40.13480 | -93.63654 | 35677 ft | 406 kts | 327° |
| 2026-05-04 18:44 | 40.18253 | -93.67049 | 35676 ft | 405 kts | 327° |
| 2026-05-04 18:45 | 40.23198 | -93.70570 | 35671 ft | 403 kts | 326° |
| 2026-05-04 18:45 | 40.27687 | -93.73774 | 35670 ft | 406 kts | 327° |
| 2026-05-04 18:46 | 40.32466 | -93.77188 | 35671 ft | 405 kts | 327° |
| 2026-05-04 18:46 | 40.37427 | -93.80738 | 35675 ft | 406 kts | 327° |
| 2026-05-04 18:47 | 40.42373 | -93.84283 | 35677 ft | 407 kts | 326° |
| 2026-05-04 18:47 | 40.47361 | -93.87865 | 35678 ft | 407 kts | 327° |
| 2026-05-04 18:48 | 40.52321 | -93.91432 | 35680 ft | 407 kts | 327° |
| 2026-05-04 18:48 | 40.57293 | -93.95013 | 35682 ft | 407 kts | 327° |
| 2026-05-04 18:49 | 40.62200 | -93.98689 | 35686 ft | 405 kts | 323° |
| 2026-05-04 18:49 | 40.66890 | -94.02772 | 35683 ft | 404 kts | 321° |
| 2026-05-04 18:50 | 40.71547 | -94.06959 | 35675 ft | 405 kts | 322° |
| 2026-05-04 18:50 | 40.76218 | -94.11112 | 35670 ft | 405 kts | 322° |
| 2026-05-04 18:51 | 40.80924 | -94.15260 | 35666 ft | 406 kts | 322° |
| 2026-05-04 18:51 | 40.85648 | -94.19411 | 35667 ft | 406 kts | 322° |
| 2026-05-04 18:52 | 40.90333 | -94.23527 | 35669 ft | 405 kts | 322° |
| 2026-05-04 18:52 | 40.95022 | -94.27651 | 35672 ft | 406 kts | 322° |
| 2026-05-04 18:53 | 40.99752 | -94.31820 | 35674 ft | 407 kts | 322° |
| 2026-05-04 18:53 | 41.04434 | -94.35952 | 35682 ft | 407 kts | 322° |
| 2026-05-04 18:54 | 41.09136 | -94.40111 | 35687 ft | 407 kts | 322° |
| 2026-05-04 18:54 | 41.13839 | -94.44277 | 35687 ft | 406 kts | 322° |
| 2026-05-04 18:55 | 41.18144 | -94.48095 | 35685 ft | 405 kts | 322° |
| 2026-05-04 18:55 | 41.25198 | -94.54370 | 35679 ft | 406 kts | 322° |
| 2026-05-04 18:56 | 41.29500 | -94.58204 | 35678 ft | 406 kts | 322° |
| 2026-05-04 18:56 | 41.34193 | -94.62392 | 35673 ft | 406 kts | 322° |
| 2026-05-04 18:57 | 41.38885 | -94.66589 | 35670 ft | 406 kts | 321° |
| 2026-05-04 18:57 | 41.43598 | -94.70813 | 35670 ft | 406 kts | 321° |
| 2026-05-04 18:58 | 41.48264 | -94.75005 | 35675 ft | 406 kts | 321° |
| 2026-05-04 18:58 | 41.52967 | -94.79237 | 35676 ft | 406 kts | 321° |
| 2026-05-04 18:59 | 41.57643 | -94.83450 | 35677 ft | 406 kts | 321° |
| 2026-05-04 18:59 | 41.62320 | -94.87670 | 35677 ft | 405 kts | 321° |
| 2026-05-04 19:00 | 41.67019 | -94.91918 | 35681 ft | 406 kts | 321° |
| 2026-05-04 19:00 | 41.71688 | -94.96146 | 35684 ft | 406 kts | 321° |
| 2026-05-04 19:01 | 41.76115 | -95.00165 | 35684 ft | 407 kts | 321° |
| 2026-05-04 19:01 | 41.80791 | -95.04415 | 35679 ft | 405 kts | 321° |
| 2026-05-04 19:02 | 41.85469 | -95.08671 | 35670 ft | 404 kts | 321° |
| 2026-05-04 19:02 | 41.90109 | -95.12904 | 35677 ft | 405 kts | 321° |
| 2026-05-04 19:03 | 41.94784 | -95.17175 | 35677 ft | 405 kts | 321° |
| 2026-05-04 19:03 | 41.99453 | -95.21450 | 35679 ft | 405 kts | 321° |
| 2026-05-04 19:04 | 42.04102 | -95.25710 | 35689 ft | 406 kts | 321° |
| 2026-05-04 19:04 | 42.08780 | -95.30004 | 35693 ft | 404 kts | 321° |
| 2026-05-04 19:05 | 42.13446 | -95.34296 | 35696 ft | 406 kts | 321° |
| 2026-05-04 19:05 | 42.17971 | -95.38467 | 35694 ft | 405 kts | 321° |
| 2026-05-04 19:06 | 42.22642 | -95.42779 | 35694 ft | 403 kts | 321° |
| 2026-05-04 19:06 | 42.27264 | -95.47054 | 35695 ft | 404 kts | 321° |
| 2026-05-04 19:07 | 42.31916 | -95.51366 | 35696 ft | 403 kts | 320° |
| 2026-05-04 19:07 | 42.34874 | -95.54110 | 35696 ft | 404 kts | 320° |
| 2026-05-04 19:08 | 42.38789 | -95.57749 | 35694 ft | 404 kts | 320° |
| 2026-05-04 19:08 | 42.43414 | -95.62056 | 35702 ft | 404 kts | 320° |
| 2026-05-04 19:09 | 42.48036 | -95.66366 | 35705 ft | 402 kts | 320° |
| 2026-05-04 19:09 | 42.52671 | -95.70695 | 35704 ft | 403 kts | 320° |
| 2026-05-04 19:10 | 42.57278 | -95.75011 | 35707 ft | 402 kts | 320° |
| 2026-05-04 19:10 | 42.61903 | -95.79346 | 35713 ft | 403 kts | 320° |
| 2026-05-04 19:11 | 42.66492 | -95.83656 | 35717 ft | 400 kts | 319° |
| 2026-05-04 19:11 | 42.71063 | -95.87956 | 35712 ft | 401 kts | 320° |
| 2026-05-04 19:12 | 42.77949 | -95.94456 | 35725 ft | 401 kts | 320° |
| 2026-05-04 19:13 | 42.82508 | -95.98766 | 35728 ft | 399 kts | 320° |
| 2026-05-04 19:13 | 42.87050 | -96.03065 | 35734 ft | 398 kts | 319° |
| 2026-05-04 19:14 | 42.91574 | -96.07360 | 35741 ft | 398 kts | 319° |
| 2026-05-04 19:14 | 42.96127 | -96.11689 | 35745 ft | 398 kts | 319° |
| 2026-05-04 19:15 | 43.00682 | -96.16027 | 35743 ft | 398 kts | 319° |
| 2026-05-04 19:15 | 43.05211 | -96.20350 | 35741 ft | 397 kts | 319° |
| 2026-05-04 19:16 | 43.09747 | -96.24686 | 35737 ft | 398 kts | 319° |
| 2026-05-04 19:16 | 43.14258 | -96.29004 | 35733 ft | 396 kts | 319° |
| 2026-05-04 19:17 | 43.18584 | -96.33155 | 35730 ft | 396 kts | 319° |
| 2026-05-04 19:17 | 43.22950 | -96.37350 | 35737 ft | 396 kts | 319° |
| 2026-05-04 19:18 | 43.27470 | -96.41703 | 35734 ft | 395 kts | 318° |
| 2026-05-04 19:18 | 43.31896 | -96.45972 | 35737 ft | 395 kts | 318° |
| 2026-05-04 19:19 | 43.36362 | -96.50288 | 35746 ft | 395 kts | 318° |
| 2026-05-04 19:19 | 43.40870 | -96.54654 | 35745 ft | 393 kts | 318° |
| 2026-05-04 19:20 | 43.45336 | -96.58986 | 35752 ft | 394 kts | 318° |
| 2026-05-04 19:20 | 43.49828 | -96.63350 | 35758 ft | 394 kts | 318° |
| 2026-05-04 19:21 | 43.54317 | -96.67714 | 35757 ft | 392 kts | 317° |
| 2026-05-04 19:21 | 43.58560 | -96.71852 | 35760 ft | 393 kts | 317° |
| 2026-05-04 19:22 | 43.63033 | -96.76224 | 35764 ft | 391 kts | 317° |
| 2026-05-04 19:22 | 43.67492 | -96.80469 | 35762 ft | 393 kts | 319° |
| 2026-05-04 19:23 | 43.72169 | -96.84516 | 35755 ft | 394 kts | 320° |
| 2026-05-04 19:23 | 43.76824 | -96.88483 | 35756 ft | 394 kts | 320° |
| 2026-05-04 19:24 | 43.81459 | -96.92471 | 35749 ft | 392 kts | 320° |
| 2026-05-04 19:24 | 43.86069 | -96.96474 | 35740 ft | 393 kts | 320° |
| 2026-05-04 19:25 | 43.90705 | -97.00520 | 35757 ft | 391 kts | 320° |
| 2026-05-04 19:25 | 43.95308 | -97.04554 | 35762 ft | 392 kts | 320° |
| 2026-05-04 19:26 | 43.99910 | -97.08591 | 35766 ft | 391 kts | 319° |
| 2026-05-04 19:26 | 44.04516 | -97.12640 | 35770 ft | 391 kts | 320° |
| 2026-05-04 19:27 | 44.09102 | -97.16679 | 35769 ft | 389 kts | 319° |
| 2026-05-04 19:27 | 44.13693 | -97.20728 | 35761 ft | 390 kts | 319° |
| 2026-05-04 19:28 | 44.18292 | -97.24792 | 35759 ft | 389 kts | 319° |
| 2026-05-04 19:28 | 44.22286 | -97.28328 | 35753 ft | 388 kts | 319° |
| 2026-05-04 19:29 | 44.26830 | -97.32362 | 35761 ft | 389 kts | 319° |
| 2026-05-04 19:29 | 44.31396 | -97.36423 | 35757 ft | 387 kts | 319° |
| 2026-05-04 19:30 | 44.35947 | -97.40472 | 35757 ft | 386 kts | 319° |
| 2026-05-04 19:30 | 44.40516 | -97.44548 | 35757 ft | 386 kts | 319° |
| 2026-05-04 19:31 | 44.45039 | -97.48591 | 35757 ft | 388 kts | 319° |
| 2026-05-04 19:31 | 44.49571 | -97.52647 | 35751 ft | 385 kts | 319° |
| 2026-05-04 19:32 | 44.54107 | -97.56715 | 35757 ft | 386 kts | 319° |
| 2026-05-04 19:32 | 44.58607 | -97.60758 | 35755 ft | 384 kts | 319° |
| 2026-05-04 19:33 | 44.63106 | -97.64812 | 35750 ft | 384 kts | 319° |
| 2026-05-04 19:33 | 44.67612 | -97.68876 | 35758 ft | 382 kts | 318° |
| 2026-05-04 19:34 | 44.72018 | -97.72864 | 35759 ft | 383 kts | 318° |
| 2026-05-04 19:34 | 44.76409 | -97.76842 | 35761 ft | 383 kts | 319° |
| 2026-05-04 19:35 | 44.80868 | -97.80882 | 35751 ft | 382 kts | 319° |
| 2026-05-04 19:35 | 44.85317 | -97.84929 | 35749 ft | 382 kts | 318° |
| 2026-05-04 19:36 | 44.89776 | -97.88983 | 35748 ft | 379 kts | 319° |
| 2026-05-04 19:36 | 44.94194 | -97.93015 | 35747 ft | 382 kts | 318° |
| 2026-05-04 19:37 | 44.98628 | -97.97066 | 35750 ft | 379 kts | 318° |
| 2026-05-04 19:37 | 45.03059 | -98.01130 | 35758 ft | 381 kts | 318° |
| 2026-05-04 19:38 | 45.07497 | -98.05199 | 35743 ft | 380 kts | 319° |
| 2026-05-04 19:38 | 45.11942 | -98.09285 | 35761 ft | 382 kts | 319° |
| 2026-05-04 19:39 | 45.16398 | -98.13384 | 35770 ft | 381 kts | 318° |
| 2026-05-04 19:39 | 45.20870 | -98.17509 | 35745 ft | 380 kts | 318° |
| 2026-05-04 19:40 | 45.24841 | -98.21182 | 35764 ft | 382 kts | 319° |
| 2026-05-04 19:40 | 45.29306 | -98.25316 | 35752 ft | 381 kts | 319° |
| 2026-05-04 19:41 | 45.33744 | -98.29433 | 35768 ft | 384 kts | 318° |
| 2026-05-04 19:41 | 45.38189 | -98.33569 | 36049 ft | 380 kts | 318° |
| 2026-05-04 19:41 | 45.40335 | -98.35754 | 35843 ft | 377 kts | 314° |
| 2026-05-04 19:42 | 45.42260 | -98.38142 | 35914 ft | 363 kts | 308° |
| 2026-05-04 19:42 | 45.44001 | -98.40760 | 35794 ft | 363 kts | 304° |
| 2026-05-04 19:42 | 45.45622 | -98.43504 | 35789 ft | 363 kts | 303° |
| 2026-05-04 19:43 | 45.48788 | -98.49090 | 35780 ft | 362 kts | 303° |
| 2026-05-04 19:43 | 45.51960 | -98.54694 | 35781 ft | 363 kts | 303° |
| 2026-05-04 19:44 | 45.55100 | -98.60214 | 35531 ft | 355 kts | 302° |
| 2026-05-04 19:44 | 45.56663 | -98.62953 | 35122 ft | 352 kts | 302° |
| 2026-05-04 19:44 | 45.58182 | -98.65624 | 34580 ft | 353 kts | 302° |
| 2026-05-04 19:44 | 45.59736 | -98.68363 | 33862 ft | 354 kts | 301° |
| 2026-05-04 19:45 | 45.61229 | -98.71003 | 33290 ft | 352 kts | 302° |
| 2026-05-04 19:45 | 45.62673 | -98.73547 | 32926 ft | 346 kts | 301° |
| 2026-05-04 19:45 | 45.64184 | -98.76207 | 32518 ft | 340 kts | 301° |
| 2026-05-04 19:45 | 45.65618 | -98.78734 | 32115 ft | 335 kts | 301° |
| 2026-05-04 19:46 | 45.67074 | -98.81303 | 31707 ft | 329 kts | 301° |
| 2026-05-04 19:46 | 45.68498 | -98.83823 | 31291 ft | 324 kts | 301° |
| 2026-05-04 19:46 | 45.69900 | -98.86311 | 30894 ft | 319 kts | 301° |
| 2026-05-04 19:46 | 45.71280 | -98.88757 | 30496 ft | 314 kts | 301° |
| 2026-05-04 19:47 | 45.72622 | -98.91137 | 30105 ft | 308 kts | 301° |
| 2026-05-04 19:47 | 45.73966 | -98.93536 | 29733 ft | 312 kts | 300° |
| 2026-05-04 19:47 | 45.75358 | -98.96044 | 29323 ft | 329 kts | 301° |
| 2026-05-04 19:47 | 45.76790 | -98.98613 | 28886 ft | 331 kts | 301° |
| 2026-05-04 19:48 | 45.78208 | -99.01135 | 28469 ft | 325 kts | 301° |
| 2026-05-04 19:48 | 45.79627 | -99.03645 | 28052 ft | 319 kts | 302° |
| 2026-05-04 19:48 | 45.80996 | -99.06066 | 27649 ft | 313 kts | 302° |
| 2026-05-04 19:48 | 45.82354 | -99.08480 | 27250 ft | 307 kts | 301° |
| 2026-05-04 19:49 | 45.83681 | -99.10834 | 26864 ft | 301 kts | 301° |
| 2026-05-04 19:49 | 45.84967 | -99.13138 | 26479 ft | 296 kts | 302° |
| 2026-05-04 19:49 | 45.86240 | -99.15416 | 26093 ft | 291 kts | 302° |
| 2026-05-04 19:49 | 45.87522 | -99.17717 | 25710 ft | 298 kts | 301° |
| 2026-05-04 19:50 | 45.88826 | -99.20073 | 25313 ft | 305 kts | 301° |
| 2026-05-04 19:50 | 45.90145 | -99.22457 | 24892 ft | 312 kts | 302° |
| 2026-05-04 19:50 | 45.91506 | -99.24908 | 24445 ft | 317 kts | 302° |
| 2026-05-04 19:50 | 45.92878 | -99.27367 | 24059 ft | 312 kts | 302° |
| 2026-05-04 19:51 | 45.94218 | -99.29765 | 23659 ft | 307 kts | 303° |
| 2026-05-04 19:51 | 45.95532 | -99.32121 | 23252 ft | 303 kts | 303° |
| 2026-05-04 19:51 | 45.96849 | -99.34494 | 22849 ft | 300 kts | 302° |
| 2026-05-04 19:51 | 45.98146 | -99.36839 | 22446 ft | 297 kts | 302° |
| 2026-05-04 19:52 | 45.99411 | -99.39126 | 22040 ft | 295 kts | 303° |
| 2026-05-04 19:52 | 46.00677 | -99.41415 | 21632 ft | 293 kts | 303° |
| 2026-05-04 19:52 | 46.01945 | -99.43709 | 21242 ft | 291 kts | 304° |
| 2026-05-04 19:52 | 46.03200 | -99.45982 | 20837 ft | 290 kts | 303° |
| 2026-05-04 19:53 | 46.04447 | -99.48243 | 20446 ft | 288 kts | 303° |
| 2026-05-04 19:53 | 46.05682 | -99.50485 | 20052 ft | 288 kts | 303° |
| 2026-05-04 19:53 | 46.06918 | -99.52728 | 19662 ft | 286 kts | 304° |
| 2026-05-04 19:53 | 46.08148 | -99.54961 | 19274 ft | 286 kts | 304° |
| 2026-05-04 19:54 | 46.09384 | -99.57206 | 18862 ft | 286 kts | 305° |
| 2026-05-04 19:54 | 46.10605 | -99.59428 | 18531 ft | 284 kts | 305° |
| 2026-05-04 19:54 | 46.11825 | -99.61651 | 18393 ft | 284 kts | 305° |
| 2026-05-04 19:54 | 46.13005 | -99.63799 | 18279 ft | 287 kts | 305° |
| 2026-05-04 19:55 | 46.14247 | -99.66066 | 18158 ft | 289 kts | 305° |
| 2026-05-04 19:55 | 46.15475 | -99.68309 | 18062 ft | 283 kts | 305° |
| 2026-05-04 19:55 | 46.16697 | -99.70539 | 17951 ft | 279 kts | 305° |
| 2026-05-04 19:55 | 46.17905 | -99.72748 | 17827 ft | 276 kts | 305° |
| 2026-05-04 19:56 | 46.19111 | -99.74954 | 17529 ft | 279 kts | 305° |
| 2026-05-04 19:56 | 46.19582 | -99.75816 | 17409 ft | 280 kts | 305° |
| 2026-05-04 19:56 | 46.20755 | -99.77966 | 17020 ft | 286 kts | 305° |
| 2026-05-04 19:56 | 46.22001 | -99.80252 | 16616 ft | 291 kts | 306° |
| 2026-05-04 19:57 | 46.23145 | -99.82352 | 16238 ft | 295 kts | 306° |
| 2026-05-04 19:57 | 46.24421 | -99.84691 | 15804 ft | 298 kts | 306° |
| 2026-05-04 19:57 | 46.25667 | -99.86978 | 15400 ft | 299 kts | 307° |
| 2026-05-04 19:57 | 46.26957 | -99.89345 | 14976 ft | 300 kts | 307° |
| 2026-05-04 19:58 | 46.28257 | -99.91735 | 14551 ft | 301 kts | 307° |
| 2026-05-04 19:58 | 46.29539 | -99.94093 | 14127 ft | 302 kts | 307° |
| 2026-05-04 19:58 | 46.30842 | -99.96490 | 13696 ft | 303 kts | 307° |
| 2026-05-04 19:58 | 46.32138 | -99.98875 | 13268 ft | 305 kts | 307° |
| 2026-05-04 19:59 | 46.33451 | -100.01295 | 12837 ft | 306 kts | 307° |
| 2026-05-04 19:59 | 46.34767 | -100.03725 | 12398 ft | 308 kts | 308° |
| 2026-05-04 19:59 | 46.36084 | -100.06161 | 11964 ft | 309 kts | 307° |
| 2026-05-04 19:59 | 46.37415 | -100.08624 | 11530 ft | 311 kts | 308° |
| 2026-05-04 20:00 | 46.38739 | -100.11076 | 11087 ft | 313 kts | 308° |
| 2026-05-04 20:00 | 46.40080 | -100.13559 | 10648 ft | 314 kts | 308° |
| 2026-05-04 20:00 | 46.41433 | -100.16066 | 10249 ft | 314 kts | 308° |
| 2026-05-04 20:00 | 46.42747 | -100.18505 | 10100 ft | 305 kts | 308° |
| 2026-05-04 20:01 | 46.44045 | -100.20915 | 9931 ft | 297 kts | 308° |
| 2026-05-04 20:01 | 46.45306 | -100.23256 | 9539 ft | 298 kts | 308° |
| 2026-05-04 20:01 | 46.46572 | -100.25615 | 9128 ft | 299 kts | 308° |
| 2026-05-04 20:01 | 46.47855 | -100.28005 | 8732 ft | 299 kts | 308° |
| 2026-05-04 20:02 | 46.49135 | -100.30392 | 8340 ft | 299 kts | 308° |
| 2026-05-04 20:02 | 46.50409 | -100.32769 | 7951 ft | 299 kts | 308° |
| 2026-05-04 20:02 | 46.51677 | -100.35183 | 7554 ft | 304 kts | 308° |
| 2026-05-04 20:02 | 46.52970 | -100.37630 | 7156 ft | 308 kts | 308° |
| 2026-05-04 20:03 | 46.54277 | -100.40080 | 6767 ft | 311 kts | 308° |
| 2026-05-04 20:03 | 46.55606 | -100.42564 | 6362 ft | 314 kts | 309° |
| 2026-05-04 20:03 | 46.56948 | -100.45084 | 5952 ft | 316 kts | 308° |
| 2026-05-04 20:03 | 46.58038 | -100.47787 | 5682 ft | 311 kts | 291° |
| 2026-05-04 20:04 | 46.58189 | -100.50890 | 5466 ft | 307 kts | 263° |
| 2026-05-04 20:04 | 46.57276 | -100.53567 | 5316 ft | 293 kts | 233° |
| 2026-05-04 20:04 | 46.55602 | -100.55087 | 5154 ft | 283 kts | 201° |
| 2026-05-04 20:04 | 46.53676 | -100.55081 | 4921 ft | 277 kts | 167° |
| 2026-05-04 20:05 | 46.52054 | -100.53778 | 4705 ft | 266 kts | 138° |
| 2026-05-04 20:05 | 46.50789 | -100.51881 | 4493 ft | 255 kts | 131° |
| 2026-05-04 20:05 | 46.49625 | -100.50001 | 4058 ft | 249 kts | 131° |
| 2026-05-04 20:05 | 46.48521 | -100.48180 | 3665 ft | 234 kts | 124° |
| 2026-05-04 20:06 | 46.47958 | -100.46091 | 3152 ft | 217 kts | 82° |
| 2026-05-04 20:06 | 46.48428 | -100.44209 | 2633 ft | 190 kts | 34° |
| 2026-05-04 20:06 | 46.49527 | -100.43679 | 2242 ft | 157 kts | 331° |
| 2026-05-04 20:06 | 46.49907 | -100.44855 | 2383 ft | 151 kts | 237° |
| 2026-05-04 20:07 | 46.49425 | -100.45335 | 1737 ft | 0 kts | 165° |